ADDS METAR Data INFO
IDs: Format: Raw Decoded Include TAF

Data at: 0340 UTC 24 Feb 2017

METAR for:KLRD (Laredo Intl Apt, TX, US)
Text:KLRD 240256Z 12011KT 10SM CLR 27/08 A2958 RMK AO2 SLP019 T02670083 53022 $
Temperature: 26.7°C ( 80°F)
Dewpoint: 8.3°C ( 47°F) [RH = 31%]
Pressure (altimeter):29.58 inches Hg (1001.8 mb) [Sea level pressure: 1001.9 mb]
Winds:from the ESE (120 degrees) at 13 MPH (11 knots; 5.7 m/s)
Visibility:10 or more sm (16+ km)
Ceiling:at least 12,000 feet AGL
Clouds:sky clear below 12,000 feet AGL
QC Flag:SOME DATA ABOVE MAY BE INACCURATE!!!"$" is an indication the sensor requires maintenance.


Page loaded:  03:40 UTC  |   07:40 PM Pacific  |   08:40 PM Mountain  |   09:40 PM Central  |   10:40 PM Eastern

 

ADVISORIES

FORECASTS

FORECASTS

OBSERVATIONS

USER TOOLS

ABOUT US